sensor_id;sensor_type;location;lat;lon;timestamp;P1;durP1;ratioP1;P2;durP2;ratioP2
44145;SDS011;29809;52.432;4.780;2022-10-22T00:00:39;1.55;;;1.10;;
44145;SDS011;29809;52.432;4.780;2022-10-22T00:03:04;1.55;;;1.20;;
44145;SDS011;29809;52.432;4.780;2022-10-22T00:05:30;1.45;;;1.20;;
44145;SDS011;29809;52.432;4.780;2022-10-22T00:07:55;1.45;;;1.20;;
44145;SDS011;29809;52.432;4.780;2022-10-22T00:10:21;1.20;;;1.10;;
44145;SDS011;29809;52.432;4.780;2022-10-22T00:12:46;1.52;;;1.25;;
44145;SDS011;29809;52.432;4.780;2022-10-22T00:15:12;1.83;;;1.10;;
44145;SDS011;29809;52.432;4.780;2022-10-22T00:17:37;1.42;;;1.10;;
44145;SDS011;29809;52.432;4.780;2022-10-22T00:20:03;1.48;;;1.38;;
44145;SDS011;29809;52.432;4.780;2022-10-22T00:22:28;1.70;;;1.05;;
44145;SDS011;29809;52.432;4.780;2022-10-22T00:24:53;1.05;;;1.02;;
44145;SDS011;29809;52.432;4.780;2022-10-22T00:27:18;0.80;;;0.80;;
44145;SDS011;29809;52.432;4.780;2022-10-22T00:29:44;3.00;;;1.60;;
44145;SDS011;29809;52.432;4.780;2022-10-22T00:32:09;1.55;;;0.90;;
44145;SDS011;29809;52.432;4.780;2022-10-22T00:34:34;3.00;;;1.20;;
44145;SDS011;29809;52.432;4.780;2022-10-22T00:36:59;1.27;;;1.17;;
44145;SDS011;29809;52.432;4.780;2022-10-22T00:39:25;2.63;;;1.20;;
44145;SDS011;29809;52.432;4.780;2022-10-22T00:41:51;2.17;;;1.05;;
44145;SDS011;29809;52.432;4.780;2022-10-22T00:47:01;1.10;;;1.00;;
44145;SDS011;29809;52.432;4.780;2022-10-22T00:49:26;2.25;;;1.23;;
44145;SDS011;29809;52.432;4.780;2022-10-22T00:51:51;1.98;;;1.40;;
44145;SDS011;29809;52.432;4.780;2022-10-22T00:54:17;1.55;;;1.10;;
44145;SDS011;29809;52.432;4.780;2022-10-22T00:56:42;1.23;;;1.05;;
44145;SDS011;29809;52.432;4.780;2022-10-22T00:59:07;2.20;;;0.93;;
44145;SDS011;29809;52.432;4.780;2022-10-22T01:01:33;1.35;;;1.00;;
44145;SDS011;29809;52.432;4.780;2022-10-22T01:03:58;2.63;;;1.20;;
44145;SDS011;29809;52.432;4.780;2022-10-22T01:06:25;2.97;;;1.45;;
44145;SDS011;29809;52.432;4.780;2022-10-22T01:19:24;2.08;;;1.00;;
44145;SDS011;29809;52.432;4.780;2022-10-22T01:22:04;2.05;;;1.27;;
44145;SDS011;29809;52.432;4.780;2022-10-22T01:29:56;1.45;;;1.17;;
44145;SDS011;29809;52.432;4.780;2022-10-22T01:32:22;1.98;;;1.25;;
44145;SDS011;29809;52.432;4.780;2022-10-22T01:34:56;1.35;;;1.02;;
44145;SDS011;29809;52.432;4.780;2022-10-22T01:37:24;1.52;;;1.13;;
44145;SDS011;29809;52.432;4.780;2022-10-22T01:39:51;2.80;;;1.40;;
44145;SDS011;29809;52.432;4.780;2022-10-22T01:42:17;1.33;;;1.23;;
44145;SDS011;29809;52.432;4.780;2022-10-22T01:44:42;3.88;;;1.50;;
44145;SDS011;29809;52.432;4.780;2022-10-22T01:52:26;1.38;;;1.05;;
44145;SDS011;29809;52.432;4.780;2022-10-22T01:54:58;1.75;;;1.38;;
44145;SDS011;29809;52.432;4.780;2022-10-22T01:57:32;2.08;;;1.52;;
44145;SDS011;29809;52.432;4.780;2022-10-22T02:05:04;2.03;;;0.98;;
44145;SDS011;29809;52.432;4.780;2022-10-22T02:07:32;3.65;;;1.20;;
44145;SDS011;29809;52.432;4.780;2022-10-22T02:09:58;3.17;;;1.25;;
44145;SDS011;29809;52.432;4.780;2022-10-22T02:14:58;2.55;;;2.05;;
44145;SDS011;29809;52.432;4.780;2022-10-22T02:17:24;1.90;;;1.20;;
44145;SDS011;29809;52.432;4.780;2022-10-22T02:19:53;1.15;;;1.05;;
44145;SDS011;29809;52.432;4.780;2022-10-22T02:22:20;1.58;;;1.15;;
44145;SDS011;29809;52.432;4.780;2022-10-22T02:24:45;1.40;;;1.00;;
44145;SDS011;29809;52.432;4.780;2022-10-22T02:27:19;3.17;;;1.30;;
44145;SDS011;29809;52.432;4.780;2022-10-22T02:32:17;2.58;;;1.30;;
44145;SDS011;29809;52.432;4.780;2022-10-22T02:34:44;2.40;;;1.23;;
44145;SDS011;29809;52.432;4.780;2022-10-22T02:37:10;2.35;;;1.50;;
44145;SDS011;29809;52.432;4.780;2022-10-22T02:39:36;5.25;;;1.48;;
44145;SDS011;29809;52.432;4.780;2022-10-22T02:42:02;2.13;;;1.45;;
44145;SDS011;29809;52.432;4.780;2022-10-22T02:44:27;2.20;;;1.60;;
44145;SDS011;29809;52.432;4.780;2022-10-22T02:46:53;2.40;;;1.45;;
44145;SDS011;29809;52.432;4.780;2022-10-22T02:49:18;1.67;;;1.35;;
44145;SDS011;29809;52.432;4.780;2022-10-22T02:51:43;3.50;;;1.55;;
44145;SDS011;29809;52.432;4.780;2022-10-22T02:54:08;1.95;;;1.40;;
44145;SDS011;29809;52.432;4.780;2022-10-22T02:56:34;3.35;;;1.23;;
44145;SDS011;29809;52.432;4.780;2022-10-22T02:58:59;1.77;;;1.23;;
44145;SDS011;29809;52.432;4.780;2022-10-22T03:01:24;1.50;;;1.35;;
44145;SDS011;29809;52.432;4.780;2022-10-22T03:03:50;1.75;;;1.55;;
44145;SDS011;29809;52.432;4.780;2022-10-22T03:06:15;2.88;;;1.30;;
44145;SDS011;29809;52.432;4.780;2022-10-22T03:08:41;1.95;;;1.40;;
44145;SDS011;29809;52.432;4.780;2022-10-22T03:11:06;1.90;;;1.40;;
44145;SDS011;29809;52.432;4.780;2022-10-22T03:13:31;3.10;;;1.38;;
44145;SDS011;29809;52.432;4.780;2022-10-22T03:15:56;1.95;;;1.50;;
44145;SDS011;29809;52.432;4.780;2022-10-22T03:18:22;3.60;;;1.30;;
44145;SDS011;29809;52.432;4.780;2022-10-22T03:20:47;2.15;;;1.58;;
44145;SDS011;29809;52.432;4.780;2022-10-22T03:23:13;2.70;;;1.27;;
44145;SDS011;29809;52.432;4.780;2022-10-22T03:25:39;3.03;;;1.40;;
44145;SDS011;29809;52.432;4.780;2022-10-22T03:28:04;5.13;;;1.70;;
44145;SDS011;29809;52.432;4.780;2022-10-22T03:30:31;3.55;;;1.83;;
44145;SDS011;29809;52.432;4.780;2022-10-22T03:32:56;2.00;;;1.33;;
44145;SDS011;29809;52.432;4.780;2022-10-22T03:35:21;2.15;;;1.30;;
44145;SDS011;29809;52.432;4.780;2022-10-22T03:37:46;4.82;;;1.85;;
44145;SDS011;29809;52.432;4.780;2022-10-22T03:40:12;4.65;;;1.17;;
44145;SDS011;29809;52.432;4.780;2022-10-22T03:42:38;4.25;;;1.60;;
44145;SDS011;29809;52.432;4.780;2022-10-22T03:45:03;1.85;;;1.50;;
44145;SDS011;29809;52.432;4.780;2022-10-22T03:47:29;3.20;;;1.42;;
44145;SDS011;29809;52.432;4.780;2022-10-22T03:49:54;3.10;;;1.67;;
44145;SDS011;29809;52.432;4.780;2022-10-22T03:52:19;2.72;;;1.83;;
44145;SDS011;29809;52.432;4.780;2022-10-22T03:54:45;2.55;;;1.20;;
44145;SDS011;29809;52.432;4.780;2022-10-22T03:57:10;2.30;;;1.45;;
44145;SDS011;29809;52.432;4.780;2022-10-22T03:59:36;2.10;;;1.75;;
44145;SDS011;29809;52.432;4.780;2022-10-22T04:02:02;4.80;;;1.60;;
44145;SDS011;29809;52.432;4.780;2022-10-22T04:04:27;2.70;;;1.52;;
44145;SDS011;29809;52.432;4.780;2022-10-22T04:06:53;4.60;;;1.88;;
44145;SDS011;29809;52.432;4.780;2022-10-22T04:09:18;3.75;;;1.83;;
44145;SDS011;29809;52.432;4.780;2022-10-22T04:11:43;4.50;;;1.90;;
44145;SDS011;29809;52.432;4.780;2022-10-22T04:14:09;2.40;;;1.55;;
44145;SDS011;29809;52.432;4.780;2022-10-22T04:16:35;2.83;;;1.67;;
44145;SDS011;29809;52.432;4.780;2022-10-22T04:19:03;4.55;;;1.60;;
44145;SDS011;29809;52.432;4.780;2022-10-22T04:21:28;2.33;;;1.85;;
44145;SDS011;29809;52.432;4.780;2022-10-22T04:23:53;3.78;;;1.48;;
44145;SDS011;29809;52.432;4.780;2022-10-22T04:26:19;2.95;;;1.70;;
44145;SDS011;29809;52.432;4.780;2022-10-22T04:28:44;3.47;;;1.80;;
44145;SDS011;29809;52.432;4.780;2022-10-22T04:31:11;3.28;;;1.50;;
44145;SDS011;29809;52.432;4.780;2022-10-22T04:33:37;2.30;;;1.60;;
44145;SDS011;29809;52.432;4.780;2022-10-22T04:36:06;4.40;;;1.67;;
44145;SDS011;29809;52.432;4.780;2022-10-22T04:38:32;3.13;;;1.48;;
44145;SDS011;29809;52.432;4.780;2022-10-22T04:40:57;3.42;;;1.42;;
44145;SDS011;29809;52.432;4.780;2022-10-22T04:43:31;1.85;;;1.45;;
44145;SDS011;29809;52.432;4.780;2022-10-22T04:45:58;3.55;;;1.85;;
44145;SDS011;29809;52.432;4.780;2022-10-22T04:48:24;2.83;;;1.30;;
44145;SDS011;29809;52.432;4.780;2022-10-22T04:50:49;2.47;;;1.50;;
44145;SDS011;29809;52.432;4.780;2022-10-22T04:53:14;2.58;;;1.60;;
44145;SDS011;29809;52.432;4.780;2022-10-22T04:55:39;2.63;;;1.50;;
44145;SDS011;29809;52.432;4.780;2022-10-22T04:58:04;2.42;;;1.60;;
44145;SDS011;29809;52.432;4.780;2022-10-22T05:00:30;4.00;;;1.58;;
44145;SDS011;29809;52.432;4.780;2022-10-22T05:02:55;3.90;;;2.10;;
44145;SDS011;29809;52.432;4.780;2022-10-22T05:05:20;2.25;;;1.50;;
44145;SDS011;29809;52.432;4.780;2022-10-22T05:07:45;1.90;;;1.30;;
44145;SDS011;29809;52.432;4.780;2022-10-22T05:10:11;5.10;;;1.92;;
44145;SDS011;29809;52.432;4.780;2022-10-22T05:12:36;2.25;;;1.55;;
44145;SDS011;29809;52.432;4.780;2022-10-22T05:15:01;1.65;;;1.35;;
44145;SDS011;29809;52.432;4.780;2022-10-22T05:17:26;3.03;;;1.73;;
44145;SDS011;29809;52.432;4.780;2022-10-22T05:19:52;3.20;;;1.63;;
44145;SDS011;29809;52.432;4.780;2022-10-22T05:22:17;3.10;;;1.95;;
44145;SDS011;29809;52.432;4.780;2022-10-22T05:24:42;8.10;;;1.60;;
44145;SDS011;29809;52.432;4.780;2022-10-22T05:27:07;2.58;;;1.90;;
44145;SDS011;29809;52.432;4.780;2022-10-22T05:29:33;4.00;;;1.70;;
44145;SDS011;29809;52.432;4.780;2022-10-22T05:31:58;2.83;;;1.70;;
44145;SDS011;29809;52.432;4.780;2022-10-22T05:34:23;2.72;;;1.67;;
44145;SDS011;29809;52.432;4.780;2022-10-22T05:36:48;4.78;;;2.00;;
44145;SDS011;29809;52.432;4.780;2022-10-22T05:39:13;3.08;;;1.75;;
44145;SDS011;29809;52.432;4.780;2022-10-22T05:41:39;8.27;;;2.17;;
44145;SDS011;29809;52.432;4.780;2022-10-22T05:44:04;4.60;;;1.88;;
44145;SDS011;29809;52.432;4.780;2022-10-22T05:46:32;4.38;;;1.88;;
44145;SDS011;29809;52.432;4.780;2022-10-22T05:48:58;5.40;;;1.60;;
44145;SDS011;29809;52.432;4.780;2022-10-22T05:51:25;3.88;;;1.58;;
44145;SDS011;29809;52.432;4.780;2022-10-22T05:53:52;15.13;;;2.38;;
44145;SDS011;29809;52.432;4.780;2022-10-22T05:56:17;3.38;;;1.75;;
44145;SDS011;29809;52.432;4.780;2022-10-22T05:58:43;5.45;;;1.95;;
44145;SDS011;29809;52.432;4.780;2022-10-22T06:01:18;2.50;;;1.70;;
44145;SDS011;29809;52.432;4.780;2022-10-22T06:03:44;7.03;;;1.60;;
44145;SDS011;29809;52.432;4.780;2022-10-22T06:06:16;2.80;;;1.70;;
44145;SDS011;29809;52.432;4.780;2022-10-22T06:08:42;5.32;;;2.13;;
44145;SDS011;29809;52.432;4.780;2022-10-22T06:11:08;6.60;;;2.08;;
44145;SDS011;29809;52.432;4.780;2022-10-22T06:13:33;3.15;;;1.85;;
44145;SDS011;29809;52.432;4.780;2022-10-22T06:15:58;3.85;;;1.55;;
44145;SDS011;29809;52.432;4.780;2022-10-22T06:18:23;2.58;;;1.55;;
44145;SDS011;29809;52.432;4.780;2022-10-22T06:20:48;3.28;;;2.15;;
44145;SDS011;29809;52.432;4.780;2022-10-22T06:23:14;3.42;;;2.00;;
44145;SDS011;29809;52.432;4.780;2022-10-22T06:25:39;41.60;;;9.25;;
44145;SDS011;29809;52.432;4.780;2022-10-22T06:28:04;91.22;;;20.83;;
44145;SDS011;29809;52.432;4.780;2022-10-22T06:30:29;163.55;;;42.78;;
44145;SDS011;29809;52.432;4.780;2022-10-22T06:32:55;158.57;;;42.28;;
44145;SDS011;29809;52.432;4.780;2022-10-22T06:35:20;134.20;;;35.85;;
44145;SDS011;29809;52.432;4.780;2022-10-22T06:37:45;118.25;;;34.28;;
44145;SDS011;29809;52.432;4.780;2022-10-22T06:40:11;96.03;;;30.83;;
44145;SDS011;29809;52.432;4.780;2022-10-22T06:42:37;98.30;;;29.13;;
44145;SDS011;29809;52.432;4.780;2022-10-22T06:45:02;77.60;;;27.27;;
44145;SDS011;29809;52.432;4.780;2022-10-22T06:47:27;75.35;;;25.50;;
44145;SDS011;29809;52.432;4.780;2022-10-22T06:49:55;73.68;;;24.63;;
44145;SDS011;29809;52.432;4.780;2022-10-22T06:52:20;68.53;;;22.08;;
44145;SDS011;29809;52.432;4.780;2022-10-22T06:54:45;58.33;;;21.83;;
44145;SDS011;29809;52.432;4.780;2022-10-22T06:57:11;47.25;;;18.15;;
44145;SDS011;29809;52.432;4.780;2022-10-22T06:59:36;48.55;;;17.10;;
44145;SDS011;29809;52.432;4.780;2022-10-22T07:02:01;47.70;;;17.45;;
44145;SDS011;29809;52.432;4.780;2022-10-22T07:04:26;43.53;;;14.88;;
44145;SDS011;29809;52.432;4.780;2022-10-22T07:06:53;44.92;;;15.60;;
44145;SDS011;29809;52.432;4.780;2022-10-22T07:09:18;38.92;;;14.32;;
44145;SDS011;29809;52.432;4.780;2022-10-22T07:11:44;32.92;;;15.25;;
44145;SDS011;29809;52.432;4.780;2022-10-22T07:14:09;33.55;;;12.45;;
44145;SDS011;29809;52.432;4.780;2022-10-22T07:16:35;31.85;;;13.10;;
44145;SDS011;29809;52.432;4.780;2022-10-22T07:19:01;27.42;;;12.15;;
44145;SDS011;29809;52.432;4.780;2022-10-22T07:21:26;27.17;;;11.32;;
44145;SDS011;29809;52.432;4.780;2022-10-22T07:23:52;23.27;;;10.85;;
44145;SDS011;29809;52.432;4.780;2022-10-22T07:26:17;24.42;;;10.32;;
44145;SDS011;29809;52.432;4.780;2022-10-22T07:28:44;22.60;;;10.43;;
44145;SDS011;29809;52.432;4.780;2022-10-22T07:31:10;18.92;;;9.02;;
44145;SDS011;29809;52.432;4.780;2022-10-22T07:33:36;20.38;;;8.30;;
44145;SDS011;29809;52.432;4.780;2022-10-22T07:36:02;15.95;;;7.82;;
44145;SDS011;29809;52.432;4.780;2022-10-22T07:38:28;17.15;;;8.27;;
44145;SDS011;29809;52.432;4.780;2022-10-22T07:40:53;17.02;;;8.43;;
44145;SDS011;29809;52.432;4.780;2022-10-22T07:43:18;15.25;;;7.25;;
44145;SDS011;29809;52.432;4.780;2022-10-22T07:45:44;17.13;;;8.48;;
44145;SDS011;29809;52.432;4.780;2022-10-22T07:48:09;15.70;;;7.50;;
44145;SDS011;29809;52.432;4.780;2022-10-22T07:50:34;16.17;;;7.07;;
44145;SDS011;29809;52.432;4.780;2022-10-22T07:53:00;11.57;;;6.75;;
44145;SDS011;29809;52.432;4.780;2022-10-22T07:55:25;12.48;;;6.03;;
44145;SDS011;29809;52.432;4.780;2022-10-22T07:57:50;16.20;;;6.90;;
44145;SDS011;29809;52.432;4.780;2022-10-22T08:00:15;13.13;;;5.10;;
44145;SDS011;29809;52.432;4.780;2022-10-22T08:02:40;10.45;;;6.03;;
44145;SDS011;29809;52.432;4.780;2022-10-22T08:05:06;9.38;;;5.07;;
44145;SDS011;29809;52.432;4.780;2022-10-22T08:07:31;9.35;;;5.30;;
44145;SDS011;29809;52.432;4.780;2022-10-22T08:09:57;12.43;;;5.13;;
44145;SDS011;29809;52.432;4.780;2022-10-22T08:12:22;10.57;;;4.55;;
44145;SDS011;29809;52.432;4.780;2022-10-22T08:14:47;10.82;;;4.45;;
44145;SDS011;29809;52.432;4.780;2022-10-22T08:17:14;10.57;;;4.68;;
44145;SDS011;29809;52.432;4.780;2022-10-22T08:19:39;9.77;;;3.92;;
44145;SDS011;29809;52.432;4.780;2022-10-22T08:22:04;8.93;;;4.13;;
44145;SDS011;29809;52.432;4.780;2022-10-22T08:24:29;7.28;;;4.10;;
44145;SDS011;29809;52.432;4.780;2022-10-22T08:26:55;9.10;;;3.85;;
44145;SDS011;29809;52.432;4.780;2022-10-22T08:29:20;5.20;;;3.50;;
44145;SDS011;29809;52.432;4.780;2022-10-22T08:31:47;5.65;;;3.83;;
44145;SDS011;29809;52.432;4.780;2022-10-22T08:34:12;7.53;;;3.60;;
44145;SDS011;29809;52.432;4.780;2022-10-22T08:36:37;7.60;;;3.80;;
44145;SDS011;29809;52.432;4.780;2022-10-22T08:39:02;5.70;;;3.22;;
44145;SDS011;29809;52.432;4.780;2022-10-22T08:41:28;7.50;;;3.25;;
44145;SDS011;29809;52.432;4.780;2022-10-22T08:44:03;6.55;;;2.85;;
44145;SDS011;29809;52.432;4.780;2022-10-22T08:49:23;5.18;;;2.58;;
44145;SDS011;29809;52.432;4.780;2022-10-22T08:51:50;7.30;;;2.92;;
44145;SDS011;29809;52.432;4.780;2022-10-22T08:54:21;7.78;;;3.15;;
44145;SDS011;29809;52.432;4.780;2022-10-22T08:57:32;12.00;;;2.92;;
44145;SDS011;29809;52.432;4.780;2022-10-22T09:02:13;6.63;;;3.25;;
44145;SDS011;29809;52.432;4.780;2022-10-22T09:04:49;5.13;;;2.50;;
44145;SDS011;29809;52.432;4.780;2022-10-22T09:07:16;10.10;;;3.55;;
44145;SDS011;29809;52.432;4.780;2022-10-22T09:09:42;8.85;;;3.03;;
44145;SDS011;29809;52.432;4.780;2022-10-22T09:12:12;10.85;;;3.30;;
44145;SDS011;29809;52.432;4.780;2022-10-22T09:14:38;5.38;;;2.33;;
44145;SDS011;29809;52.432;4.780;2022-10-22T09:17:09;6.82;;;2.30;;
44145;SDS011;29809;52.432;4.780;2022-10-22T09:24:47;8.75;;;2.65;;
44145;SDS011;29809;52.432;4.780;2022-10-22T09:27:19;6.60;;;2.40;;
44145;SDS011;29809;52.432;4.780;2022-10-22T09:29:45;8.10;;;2.88;;
44145;SDS011;29809;52.432;4.780;2022-10-22T09:32:11;6.88;;;2.42;;
44145;SDS011;29809;52.432;4.780;2022-10-22T09:34:36;5.93;;;2.38;;
44145;SDS011;29809;52.432;4.780;2022-10-22T09:37:03;6.15;;;2.20;;
44145;SDS011;29809;52.432;4.780;2022-10-22T09:42:03;5.82;;;2.50;;
44145;SDS011;29809;52.432;4.780;2022-10-22T09:44:30;5.72;;;2.30;;
44145;SDS011;29809;52.432;4.780;2022-10-22T09:46:56;10.63;;;2.80;;
44145;SDS011;29809;52.432;4.780;2022-10-22T09:49:22;11.57;;;2.92;;
44145;SDS011;29809;52.432;4.780;2022-10-22T09:51:55;9.25;;;2.33;;
44145;SDS011;29809;52.432;4.780;2022-10-22T09:54:22;6.00;;;2.10;;
44145;SDS011;29809;52.432;4.780;2022-10-22T09:59:23;7.65;;;2.35;;
44145;SDS011;29809;52.432;4.780;2022-10-22T10:01:55;10.40;;;2.38;;
44145;SDS011;29809;52.432;4.780;2022-10-22T10:04:20;4.68;;;1.98;;
44145;SDS011;29809;52.432;4.780;2022-10-22T10:06:52;12.75;;;2.70;;
44145;SDS011;29809;52.432;4.780;2022-10-22T10:09:19;10.32;;;2.53;;
44145;SDS011;29809;52.432;4.780;2022-10-22T10:11:45;11.95;;;2.88;;
44145;SDS011;29809;52.432;4.780;2022-10-22T10:14:20;8.30;;;2.47;;
44145;SDS011;29809;52.432;4.780;2022-10-22T10:17:04;6.68;;;2.30;;
44145;SDS011;29809;52.432;4.780;2022-10-22T10:22:01;6.45;;;2.40;;
44145;SDS011;29809;52.432;4.780;2022-10-22T10:27:10;8.75;;;2.25;;
44145;SDS011;29809;52.432;4.780;2022-10-22T10:29:43;6.90;;;2.25;;
44145;SDS011;29809;52.432;4.780;2022-10-22T10:35:28;8.00;;;1.90;;
44145;SDS011;29809;52.432;4.780;2022-10-22T10:37:49;6.30;;;2.10;;
44145;SDS011;29809;52.432;4.780;2022-10-22T10:42:47;8.52;;;1.83;;
44145;SDS011;29809;52.432;4.780;2022-10-22T10:53:09;9.38;;;2.15;;
44145;SDS011;29809;52.432;4.780;2022-10-22T10:55:49;4.55;;;1.80;;
44145;SDS011;29809;52.432;4.780;2022-10-22T10:58:23;7.32;;;2.25;;
44145;SDS011;29809;52.432;4.780;2022-10-22T11:00:52;6.38;;;2.33;;
44145;SDS011;29809;52.432;4.780;2022-10-22T11:06:03;9.48;;;2.30;;
44145;SDS011;29809;52.432;4.780;2022-10-22T11:08:33;6.15;;;2.25;;
44145;SDS011;29809;52.432;4.780;2022-10-22T11:11:01;13.88;;;2.28;;
44145;SDS011;29809;52.432;4.780;2022-10-22T11:13:52;9.15;;;2.45;;
44145;SDS011;29809;52.432;4.780;2022-10-22T11:21:31;8.52;;;2.45;;
44145;SDS011;29809;52.432;4.780;2022-10-22T11:24:21;7.32;;;1.70;;
44145;SDS011;29809;52.432;4.780;2022-10-22T11:26:55;5.70;;;1.50;;
44145;SDS011;29809;52.432;4.780;2022-10-22T11:29:22;8.52;;;2.20;;
44145;SDS011;29809;52.432;4.780;2022-10-22T11:31:49;10.95;;;1.98;;
44145;SDS011;29809;52.432;4.780;2022-10-22T11:34:17;10.75;;;2.88;;
44145;SDS011;29809;52.432;4.780;2022-10-22T11:36:43;7.10;;;2.13;;
44145;SDS011;29809;52.432;4.780;2022-10-22T11:39:29;5.25;;;1.92;;
44145;SDS011;29809;52.432;4.780;2022-10-22T11:41:57;8.70;;;2.33;;
44145;SDS011;29809;52.432;4.780;2022-10-22T11:44:22;7.00;;;1.75;;
44145;SDS011;29809;52.432;4.780;2022-10-22T11:49:18;10.15;;;2.00;;
44145;SDS011;29809;52.432;4.780;2022-10-22T11:51:46;5.38;;;2.10;;
44145;SDS011;29809;52.432;4.780;2022-10-22T11:54:25;7.55;;;2.25;;
44145;SDS011;29809;52.432;4.780;2022-10-22T11:56:56;8.80;;;2.95;;
44145;SDS011;29809;52.432;4.780;2022-10-22T11:59:38;9.55;;;2.83;;
44145;SDS011;29809;52.432;4.780;2022-10-22T12:02:19;12.52;;;2.60;;
44145;SDS011;29809;52.432;4.780;2022-10-22T12:04:46;10.20;;;2.35;;
44145;SDS011;29809;52.432;4.780;2022-10-22T12:09:56;7.90;;;1.75;;
44145;SDS011;29809;52.432;4.780;2022-10-22T12:12:21;14.00;;;2.70;;
44145;SDS011;29809;52.432;4.780;2022-10-22T12:14:51;10.35;;;3.38;;
44145;SDS011;29809;52.432;4.780;2022-10-22T12:17:16;15.98;;;3.45;;
44145;SDS011;29809;52.432;4.780;2022-10-22T12:19:43;15.18;;;3.75;;
44145;SDS011;29809;52.432;4.780;2022-10-22T12:24:35;14.18;;;3.47;;
44145;SDS011;29809;52.432;4.780;2022-10-22T12:27:01;14.23;;;3.05;;
44145;SDS011;29809;52.432;4.780;2022-10-22T12:29:29;19.50;;;3.80;;
44145;SDS011;29809;52.432;4.780;2022-10-22T12:31:55;14.43;;;3.88;;
44145;SDS011;29809;52.432;4.780;2022-10-22T12:34:21;14.45;;;3.83;;
44145;SDS011;29809;52.432;4.780;2022-10-22T12:36:49;14.52;;;3.88;;
44145;SDS011;29809;52.432;4.780;2022-10-22T12:39:15;14.88;;;3.05;;
44145;SDS011;29809;52.432;4.780;2022-10-22T12:41:42;14.13;;;3.45;;
44145;SDS011;29809;52.432;4.780;2022-10-22T12:44:10;17.35;;;3.60;;
44145;SDS011;29809;52.432;4.780;2022-10-22T12:46:35;15.95;;;3.30;;
44145;SDS011;29809;52.432;4.780;2022-10-22T12:49:02;11.52;;;3.22;;
44145;SDS011;29809;52.432;4.780;2022-10-22T12:51:28;13.57;;;3.58;;
44145;SDS011;29809;52.432;4.780;2022-10-22T12:53:55;9.95;;;2.45;;
44145;SDS011;29809;52.432;4.780;2022-10-22T12:56:24;8.82;;;3.20;;
44145;SDS011;29809;52.432;4.780;2022-10-22T12:58:51;11.45;;;3.22;;
44145;SDS011;29809;52.432;4.780;2022-10-22T13:01:17;11.45;;;3.28;;
44145;SDS011;29809;52.432;4.780;2022-10-22T13:03:47;12.50;;;3.40;;
44145;SDS011;29809;52.432;4.780;2022-10-22T13:08:42;8.25;;;2.53;;
44145;SDS011;29809;52.432;4.780;2022-10-22T13:11:08;11.15;;;3.20;;
44145;SDS011;29809;52.432;4.780;2022-10-22T13:13:41;8.38;;;3.08;;
44145;SDS011;29809;52.432;4.780;2022-10-22T13:18:38;10.00;;;3.28;;
44145;SDS011;29809;52.432;4.780;2022-10-22T13:21:03;12.15;;;3.22;;
44145;SDS011;29809;52.432;4.780;2022-10-22T13:23:31;15.02;;;3.45;;
44145;SDS011;29809;52.432;4.780;2022-10-22T13:28:23;11.77;;;3.15;;
44145;SDS011;29809;52.432;4.780;2022-10-22T13:31:07;11.50;;;2.83;;
44145;SDS011;29809;52.432;4.780;2022-10-22T13:33:34;10.23;;;2.90;;
44145;SDS011;29809;52.432;4.780;2022-10-22T13:36:00;10.38;;;2.88;;
44145;SDS011;29809;52.432;4.780;2022-10-22T13:38:26;14.43;;;3.28;;
44145;SDS011;29809;52.432;4.780;2022-10-22T13:40:52;11.75;;;3.30;;
44145;SDS011;29809;52.432;4.780;2022-10-22T13:43:17;13.70;;;3.33;;
44145;SDS011;29809;52.432;4.780;2022-10-22T13:45:43;5.35;;;2.08;;
44145;SDS011;29809;52.432;4.780;2022-10-22T13:48:15;10.27;;;2.70;;
44145;SDS011;29809;52.432;4.780;2022-10-22T13:50:43;8.35;;;3.00;;
44145;SDS011;29809;52.432;4.780;2022-10-22T13:53:09;9.63;;;3.40;;
44145;SDS011;29809;52.432;4.780;2022-10-22T13:55:40;9.63;;;2.47;;
44145;SDS011;29809;52.432;4.780;2022-10-22T13:58:08;8.02;;;2.33;;
44145;SDS011;29809;52.432;4.780;2022-10-22T14:00:34;9.68;;;2.80;;
44145;SDS011;29809;52.432;4.780;2022-10-22T14:03:01;6.70;;;2.25;;
44145;SDS011;29809;52.432;4.780;2022-10-22T14:05:26;8.77;;;2.65;;
44145;SDS011;29809;52.432;4.780;2022-10-22T14:07:52;9.52;;;2.42;;
44145;SDS011;29809;52.432;4.780;2022-10-22T14:10:19;9.98;;;2.20;;
44145;SDS011;29809;52.432;4.780;2022-10-22T14:12:45;7.97;;;2.65;;
44145;SDS011;29809;52.432;4.780;2022-10-22T14:15:10;11.23;;;3.40;;
44145;SDS011;29809;52.432;4.780;2022-10-22T14:17:37;7.35;;;2.20;;
44145;SDS011;29809;52.432;4.780;2022-10-22T14:20:02;9.60;;;2.60;;
44145;SDS011;29809;52.432;4.780;2022-10-22T14:22:27;9.77;;;3.00;;
44145;SDS011;29809;52.432;4.780;2022-10-22T14:24:53;7.35;;;2.45;;
44145;SDS011;29809;52.432;4.780;2022-10-22T14:27:19;8.93;;;2.30;;
44145;SDS011;29809;52.432;4.780;2022-10-22T14:29:44;12.50;;;2.75;;
44145;SDS011;29809;52.432;4.780;2022-10-22T14:32:13;8.13;;;2.28;;
44145;SDS011;29809;52.432;4.780;2022-10-22T14:34:39;12.77;;;2.60;;
44145;SDS011;29809;52.432;4.780;2022-10-22T14:37:04;7.78;;;2.53;;
44145;SDS011;29809;52.432;4.780;2022-10-22T14:39:29;9.82;;;2.63;;
44145;SDS011;29809;52.432;4.780;2022-10-22T14:41:54;9.00;;;2.78;;
44145;SDS011;29809;52.432;4.780;2022-10-22T14:44:20;10.73;;;3.08;;
44145;SDS011;29809;52.432;4.780;2022-10-22T14:46:45;9.63;;;2.83;;
44145;SDS011;29809;52.432;4.780;2022-10-22T14:49:10;6.75;;;2.65;;
44145;SDS011;29809;52.432;4.780;2022-10-22T14:51:36;7.43;;;2.13;;
44145;SDS011;29809;52.432;4.780;2022-10-22T14:54:01;7.10;;;2.10;;
44145;SDS011;29809;52.432;4.780;2022-10-22T14:56:26;7.63;;;2.10;;
44145;SDS011;29809;52.432;4.780;2022-10-22T14:58:51;9.02;;;2.55;;
44145;SDS011;29809;52.432;4.780;2022-10-22T15:01:17;7.63;;;2.03;;
44145;SDS011;29809;52.432;4.780;2022-10-22T15:03:43;6.72;;;2.00;;
44145;SDS011;29809;52.432;4.780;2022-10-22T15:06:08;10.70;;;2.40;;
44145;SDS011;29809;52.432;4.780;2022-10-22T15:08:33;8.48;;;2.60;;
44145;SDS011;29809;52.432;4.780;2022-10-22T15:10:59;9.52;;;2.40;;
44145;SDS011;29809;52.432;4.780;2022-10-22T15:13:25;7.15;;;3.15;;
44145;SDS011;29809;52.432;4.780;2022-10-22T15:15:51;15.15;;;3.30;;
44145;SDS011;29809;52.432;4.780;2022-10-22T15:18:16;7.57;;;2.20;;
44145;SDS011;29809;52.432;4.780;2022-10-22T15:20:41;10.70;;;3.10;;
44145;SDS011;29809;52.432;4.780;2022-10-22T15:23:06;12.10;;;2.75;;
44145;SDS011;29809;52.432;4.780;2022-10-22T15:25:32;7.75;;;2.05;;
44145;SDS011;29809;52.432;4.780;2022-10-22T15:27:57;11.05;;;2.20;;
44145;SDS011;29809;52.432;4.780;2022-10-22T15:30:22;9.10;;;3.13;;
44145;SDS011;29809;52.432;4.780;2022-10-22T15:32:47;11.82;;;3.10;;
44145;SDS011;29809;52.432;4.780;2022-10-22T15:35:12;11.55;;;3.38;;
44145;SDS011;29809;52.432;4.780;2022-10-22T15:37:38;8.60;;;2.67;;
44145;SDS011;29809;52.432;4.780;2022-10-22T15:40:04;10.48;;;2.70;;
44145;SDS011;29809;52.432;4.780;2022-10-22T15:42:31;11.10;;;3.28;;
44145;SDS011;29809;52.432;4.780;2022-10-22T15:44:57;7.97;;;2.42;;
44145;SDS011;29809;52.432;4.780;2022-10-22T15:47:22;9.10;;;2.72;;
44145;SDS011;29809;52.432;4.780;2022-10-22T15:49:52;6.55;;;2.67;;
44145;SDS011;29809;52.432;4.780;2022-10-22T15:52:17;12.52;;;3.58;;
44145;SDS011;29809;52.432;4.780;2022-10-22T15:54:42;9.00;;;2.92;;
44145;SDS011;29809;52.432;4.780;2022-10-22T15:57:08;9.43;;;2.88;;
44145;SDS011;29809;52.432;4.780;2022-10-22T15:59:34;8.55;;;2.92;;
44145;SDS011;29809;52.432;4.780;2022-10-22T16:02:00;11.00;;;3.17;;
44145;SDS011;29809;52.432;4.780;2022-10-22T16:04:25;11.80;;;3.30;;
44145;SDS011;29809;52.432;4.780;2022-10-22T16:06:51;10.48;;;3.22;;
44145;SDS011;29809;52.432;4.780;2022-10-22T16:09:17;12.18;;;3.25;;
44145;SDS011;29809;52.432;4.780;2022-10-22T16:11:43;8.73;;;2.55;;